Time;durP1;ratioP1;P1;durP2;ratioP2;P2;SDS_P1;SDS_P2;PMS_P1;PMS_P2;Temp;Humidity;BMP_temperature;BMP_pressure;BME280_temperature;BME280_humidity;BME280_pressure;Samples;Min_cycle;Max_cycle;Signal;HPM_P1;HPM_P2
2021/03/21 00:01:33;;;;;;;66.75;32.53;;;;;;;;;;5007443;28;20045;-88
2021/03/21 00:04:00;;;;;;;53.03;27.65;;;;;;;;;;5003185;28;20053;-87
2021/03/21 00:09:29;;;;;;;47.13;25.73;;;;;;;;;;5020426;28;20328;-88
2021/03/21 00:11:55;;;;;;;46.60;24.25;;;;;;;;;;5014540;28;20109;-90
2021/03/21 00:14:21;;;;;;;44.30;24.13;;;;;;;;;;4987059;28;20026;-87
2021/03/21 00:16:48;;;;;;;46.38;23.63;;;;;;;;;;5000599;28;20018;-90
2021/03/21 00:19:14;;;;;;;75.20;36.20;;;;;;;;;;4986158;28;20045;-89
2021/03/21 00:21:40;;;;;;;101.97;45.78;;;;;;;;;;5011513;28;20133;-90
2021/03/21 00:24:09;;;;;;;125.85;53.58;;;;;;;;;;5000671;28;20069;-90
2021/03/21 00:26:36;;;;;;;75.03;36.28;;;;;;;;;;5009032;28;20029;-90
2021/03/21 00:29:02;;;;;;;62.33;27.52;;;;;;;;;;5016243;28;20363;-89
2021/03/21 00:31:28;;;;;;;60.22;28.00;;;;;;;;;;5002515;28;20364;-90
2021/03/21 00:33:54;;;;;;;40.15;22.63;;;;;;;;;;5004931;28;20026;-90
2021/03/21 00:39:23;;;;;;;41.17;22.00;;;;;;;;;;5006033;28;20401;-91
2021/03/21 00:41:49;;;;;;;37.58;21.23;;;;;;;;;;5020300;28;20109;-91
2021/03/21 00:44:16;;;;;;;34.00;20.42;;;;;;;;;;4995639;28;20026;-89
2021/03/21 00:46:42;;;;;;;36.15;20.88;;;;;;;;;;5008937;28;20026;-91
2021/03/21 00:49:08;;;;;;;33.58;19.65;;;;;;;;;;5000235;28;20054;-90
2021/03/21 00:51:34;;;;;;;32.67;20.08;;;;;;;;;;5014143;28;20041;-90
2021/03/21 00:54:00;;;;;;;38.20;20.88;;;;;;;;;;5020307;28;20101;-91
2021/03/21 00:56:29;;;;;;;47.63;24.95;;;;;;;;;;5019734;28;20034;-92
2021/03/21 00:58:57;;;;;;;53.72;26.95;;;;;;;;;;5002636;28;20022;-91
2021/03/21 01:01:24;;;;;;;47.10;25.00;;;;;;;;;;5002566;28;20033;-91
2021/03/21 01:03:50;;;;;;;67.50;30.75;;;;;;;;;;5002702;28;20030;-90
2021/03/21 01:06:16;;;;;;;46.47;25.85;;;;;;;;;;5002463;28;20108;-91
2021/03/21 01:08:42;;;;;;;41.67;22.33;;;;;;;;;;5002250;28;20076;-91
2021/03/21 01:11:08;;;;;;;44.10;23.50;;;;;;;;;;5019648;28;20493;-90
2021/03/21 01:13:34;;;;;;;65.57;30.30;;;;;;;;;;5019871;28;20034;-89
2021/03/21 01:16:01;;;;;;;60.17;30.90;;;;;;;;;;5019767;28;20029;-90
2021/03/21 01:18:31;;;;;;;99.45;42.38;;;;;;;;;;5002338;28;20025;-89
2021/03/21 01:20:58;;;;;;;76.30;32.60;;;;;;;;;;5002375;28;20030;-90
2021/03/21 01:23:24;;;;;;;63.78;28.17;;;;;;;;;;5002252;28;20077;-89
2021/03/21 01:25:50;;;;;;;47.63;24.38;;;;;;;;;;5019301;28;20014;-89
2021/03/21 01:28:24;;;;;;;51.72;24.00;;;;;;;;;;5019234;28;20026;-89
2021/03/21 01:30:51;;;;;;;32.92;18.73;;;;;;;;;;5019595;28;20052;-90
2021/03/21 01:33:17;;;;;;;32.95;18.35;;;;;;;;;;5001889;28;20030;-90
2021/03/21 01:35:44;;;;;;;33.40;19.02;;;;;;;;;;5019309;28;20037;-90
2021/03/21 01:38:10;;;;;;;30.63;17.52;;;;;;;;;;5019149;28;20288;-90
2021/03/21 01:40:37;;;;;;;32.97;18.23;;;;;;;;;;5019159;28;20026;-91
2021/03/21 01:43:03;;;;;;;36.78;18.52;;;;;;;;;;5019177;28;20028;-90
2021/03/21 01:45:40;;;;;;;34.20;18.95;;;;;;;;;;5018915;28;20022;-91
2021/03/21 01:48:25;;;;;;;35.17;19.65;;;;;;;;;;5001678;28;20033;-90
2021/03/21 01:51:09;;;;;;;35.22;19.80;;;;;;;;;;5019003;28;20033;-90
2021/03/21 01:53:37;;;;;;;31.30;17.52;;;;;;;;;;5001697;28;20321;-90
2021/03/21 01:56:03;;;;;;;29.83;17.80;;;;;;;;;;5001560;28;20057;-90
2021/03/21 01:58:29;;;;;;;33.67;18.50;;;;;;;;;;5018647;28;20018;-90
2021/03/21 02:01:00;;;;;;;30.58;17.60;;;;;;;;;;5001459;28;20022;-89
2021/03/21 02:03:27;;;;;;;40.97;19.30;;;;;;;;;;5001573;28;20064;-88
2021/03/21 02:06:07;;;;;;;37.58;19.10;;;;;;;;;;5001506;28;20060;-90
2021/03/21 02:08:33;;;;;;;32.20;18.38;;;;;;;;;;5001461;28;20026;-91
2021/03/21 02:11:25;;;;;;;32.47;19.00;;;;;;;;;;5001464;28;20033;-89
2021/03/21 02:14:04;;;;;;;34.33;19.15;;;;;;;;;;4939393;29;20122;-90
2021/03/21 02:16:40;;;;;;;34.17;19.83;;;;;;;;;;4923325;29;20027;-89
2021/03/21 02:19:09;;;;;;;35.45;18.98;;;;;;;;;;4939383;29;20036;-89
2021/03/21 02:21:38;;;;;;;35.97;19.65;;;;;;;;;;4939032;29;20061;-88
2021/03/21 02:24:04;;;;;;;34.08;18.75;;;;;;;;;;4939181;29;20043;-88
2021/03/21 02:26:33;;;;;;;30.08;17.83;;;;;;;;;;4923617;29;20040;-89
2021/03/21 02:29:12;;;;;;;36.50;20.08;;;;;;;;;;4939174;29;20028;-88
2021/03/21 02:31:42;;;;;;;35.00;18.92;;;;;;;;;;4938917;29;20338;-88
2021/03/21 02:34:14;;;;;;;31.48;19.10;;;;;;;;;;4939103;29;20035;-88
2021/03/21 02:36:45;;;;;;;31.42;18.70;;;;;;;;;;4923170;29;20054;-88
2021/03/21 02:39:26;;;;;;;45.17;23.50;;;;;;;;;;4938821;29;20036;-88
2021/03/21 02:41:55;;;;;;;41.97;22.92;;;;;;;;;;4939164;29;20456;-88
2021/03/21 02:44:27;;;;;;;41.72;21.58;;;;;;;;;;4939062;29;20106;-89
2021/03/21 02:46:58;;;;;;;43.47;21.85;;;;;;;;;;4938885;29;20067;-89
2021/03/21 02:49:25;;;;;;;47.35;24.83;;;;;;;;;;4939154;29;20311;-89
2021/03/21 02:51:53;;;;;;;44.53;23.13;;;;;;;;;;5000782;28;20335;-89
2021/03/21 02:54:28;;;;;;;50.80;23.98;;;;;;;;;;5000719;28;20084;-89
2021/03/21 02:56:56;;;;;;;46.05;23.38;;;;;;;;;;5017817;28;20038;-89
2021/03/21 02:59:41;;;;;;;48.17;23.10;;;;;;;;;;5000671;28;20029;-88
2021/03/21 03:02:10;;;;;;;38.75;20.45;;;;;;;;;;5017947;28;20022;-92
2021/03/21 03:04:39;;;;;;;43.60;22.05;;;;;;;;;;5017773;28;20022;-90
2021/03/21 03:07:08;;;;;;;35.50;19.08;;;;;;;;;;5017945;28;20026;-89
2021/03/21 03:09:44;;;;;;;40.42;19.65;;;;;;;;;;5000190;28;20057;-91
2021/03/21 03:12:12;;;;;;;39.58;20.42;;;;;;;;;;5018194;28;20022;-90
2021/03/21 03:14:39;;;;;;;47.45;23.02;;;;;;;;;;5024087;28;20037;-90
2021/03/21 03:17:15;;;;;;;43.58;21.35;;;;;;;;;;5024161;28;20401;-89
2021/03/21 03:19:41;;;;;;;45.30;22.33;;;;;;;;;;5024210;28;20052;-89
2021/03/21 03:22:27;;;;;;;36.85;21.67;;;;;;;;;;5006841;28;20068;-89
2021/03/21 03:25:31;;;;;;;39.63;22.70;;;;;;;;;;5024179;28;20305;-89
2021/03/21 03:28:00;;;;;;;34.70;19.88;;;;;;;;;;4928866;29;20055;-88
2021/03/21 03:30:37;;;;;;;36.70;20.13;;;;;;;;;;4929005;29;20072;-88
2021/03/21 03:33:04;;;;;;;37.15;20.08;;;;;;;;;;4944859;29;20055;-87
2021/03/21 03:35:30;;;;;;;35.03;20.05;;;;;;;;;;4944963;29;20502;-88
2021/03/21 03:37:56;;;;;;;35.00;20.55;;;;;;;;;;4944769;29;20032;-90
2021/03/21 03:40:23;;;;;;;32.60;19.48;;;;;;;;;;4928811;29;20119;-89
2021/03/21 03:43:09;;;;;;;130.88;52.42;;;;;;;;;;4944645;29;20020;-89
2021/03/21 03:45:48;;;;;;;456.48;159.52;;;;;;;;;;4944697;29;20028;-88
2021/03/21 03:48:44;;;;;;;251.77;94.35;;;;;;;;;;4944744;29;20123;-87
2021/03/21 03:51:23;;;;;;;120.05;45.25;;;;;;;;;;4887786;29;20037;-88
2021/03/21 03:53:49;;;;;;;39.15;21.20;;;;;;;;;;4888008;29;20035;-88
2021/03/21 03:56:21;;;;;;;60.80;27.90;;;;;;;;;;4887680;29;20124;-87
2021/03/21 03:58:50;;;;;;;72.68;32.15;;;;;;;;;;4918786;29;20028;-88
2021/03/21 04:01:22;;;;;;;64.38;29.92;;;;;;;;;;4928619;29;20330;-88
2021/03/21 04:03:57;;;;;;;46.83;23.73;;;;;;;;;;4928750;29;20024;-88
2021/03/21 04:06:24;;;;;;;45.03;23.02;;;;;;;;;;4928600;29;20147;-89
2021/03/21 04:08:56;;;;;;;42.58;22.75;;;;;;;;;;4944487;29;20051;-90
2021/03/21 04:11:22;;;;;;;38.25;22.63;;;;;;;;;;4944517;29;20054;-90
2021/03/21 04:13:52;;;;;;;34.40;20.33;;;;;;;;;;4944574;29;20042;-89
2021/03/21 04:16:21;;;;;;;40.10;20.88;;;;;;;;;;4944358;29;20059;-91
2021/03/21 04:18:56;;;;;;;44.45;22.50;;;;;;;;;;4944524;29;20032;-90
2021/03/21 04:21:28;;;;;;;38.70;21.90;;;;;;;;;;4944460;29;20039;-90
2021/03/21 04:24:07;;;;;;;38.15;21.60;;;;;;;;;;4943505;29;20035;-90
2021/03/21 04:26:41;;;;;;;35.88;21.80;;;;;;;;;;4947283;28;20036;-90
2021/03/21 04:29:11;;;;;;;36.25;20.40;;;;;;;;;;5000087;28;20072;-90
2021/03/21 04:31:39;;;;;;;34.92;20.90;;;;;;;;;;5000972;28;20030;-89
2021/03/21 04:34:06;;;;;;;36.15;21.15;;;;;;;;;;5000936;28;20023;-90
2021/03/21 04:36:36;;;;;;;39.00;20.95;;;;;;;;;;5000779;28;20081;-90
2021/03/21 04:39:07;;;;;;;40.88;22.13;;;;;;;;;;5000777;28;20098;-91
2021/03/21 04:41:43;;;;;;;38.95;21.52;;;;;;;;;;5000700;28;20057;-90
2021/03/21 04:44:12;;;;;;;37.63;21.83;;;;;;;;;;4999751;28;20309;-90
2021/03/21 04:46:40;;;;;;;37.63;21.65;;;;;;;;;;4999905;28;20042;-91
2021/03/21 04:49:06;;;;;;;34.42;21.42;;;;;;;;;;5000830;28;20344;-92
2021/03/21 04:51:40;;;;;;;37.15;21.98;;;;;;;;;;5000669;28;20081;-91
2021/03/21 04:54:06;;;;;;;36.10;21.27;;;;;;;;;;4999429;28;20447;-92
2021/03/21 04:56:35;;;;;;;35.08;21.83;;;;;;;;;;5000378;28;20037;-91
2021/03/21 04:59:08;;;;;;;35.78;21.02;;;;;;;;;;5000512;28;20025;-91
2021/03/21 05:01:56;;;;;;;40.95;22.05;;;;;;;;;;5000356;28;20026;-91
2021/03/21 05:04:24;;;;;;;37.13;20.92;;;;;;;;;;5000263;28;20069;-90
2021/03/21 05:06:50;;;;;;;37.53;21.55;;;;;;;;;;5000168;28;20030;-90
2021/03/21 05:09:27;;;;;;;38.60;22.25;;;;;;;;;;4999217;28;20081;-91
2021/03/21 05:11:57;;;;;;;34.53;20.58;;;;;;;;;;5000051;28;20034;-90
2021/03/21 05:14:34;;;;;;;38.45;20.92;;;;;;;;;;4999022;28;20038;-92
2021/03/21 05:17:06;;;;;;;39.97;21.33;;;;;;;;;;4999900;28;20022;-90
2021/03/21 05:19:46;;;;;;;39.10;21.98;;;;;;;;;;5000239;28;20023;-91
2021/03/21 05:22:32;;;;;;;37.70;21.60;;;;;;;;;;5007339;28;20050;-91
2021/03/21 05:24:58;;;;;;;37.47;22.13;;;;;;;;;;5002278;28;20022;-91
2021/03/21 05:27:39;;;;;;;38.42;21.67;;;;;;;;;;5002223;28;20076;-91
2021/03/21 05:30:16;;;;;;;39.53;21.38;;;;;;;;;;5019464;28;20026;-91
2021/03/21 05:32:43;;;;;;;39.13;21.25;;;;;;;;;;5019551;28;20026;-92
2021/03/21 05:35:16;;;;;;;36.25;21.73;;;;;;;;;;5019240;28;20038;-89
2021/03/21 05:38:00;;;;;;;40.75;21.88;;;;;;;;;;5001856;28;20026;-89
2021/03/21 05:40:47;;;;;;;36.88;21.10;;;;;;;;;;5019421;28;20112;-89
2021/03/21 05:43:35;;;;;;;36.58;21.45;;;;;;;;;;5019177;28;20064;-89
2021/03/21 05:46:05;;;;;;;36.67;20.85;;;;;;;;;;5019099;28;20049;-90
2021/03/21 05:48:31;;;;;;;37.55;23.05;;;;;;;;;;5019045;28;20029;-89
2021/03/21 05:51:17;;;;;;;54.92;26.75;;;;;;;;;;5019092;28;20026;-90
2021/03/21 05:53:46;;;;;;;95.15;40.45;;;;;;;;;;5019072;28;20439;-91
2021/03/21 05:59:16;;;;;;;174.05;63.00;;;;;;;;;;5019044;28;20590;-91
2021/03/21 06:01:45;;;;;;;118.70;48.90;;;;;;;;;;5018682;28;20061;-91
2021/03/21 06:04:30;;;;;;;139.85;52.92;;;;;;;;;;5019041;28;20113;-89
2021/03/21 06:10:21;;;;;;;100.80;37.15;;;;;;;;;;5019036;28;20081;-89
2021/03/21 06:12:50;;;;;;;98.32;38.30;;;;;;;;;;5018895;28;20037;-90
2021/03/21 06:15:37;;;;;;;130.77;44.65;;;;;;;;;;5018618;28;20050;-89
2021/03/21 06:18:22;;;;;;;66.82;29.60;;;;;;;;;;5018638;28;20030;-91
2021/03/21 06:20:50;;;;;;;107.85;36.75;;;;;;;;;;5018657;28;20050;-90
2021/03/21 06:23:25;;;;;;;105.32;37.72;;;;;;;;;;4997730;28;20134;-91
2021/03/21 06:26:07;;;;;;;54.53;27.38;;;;;;;;;;4998798;28;20053;-90
2021/03/21 06:28:48;;;;;;;72.95;29.63;;;;;;;;;;4999216;28;20023;-91
2021/03/21 06:31:26;;;;;;;50.00;24.63;;;;;;;;;;4999143;28;20106;-90
2021/03/21 06:33:58;;;;;;;48.42;25.30;;;;;;;;;;4998620;28;20023;-89
2021/03/21 06:36:42;;;;;;;43.08;23.42;;;;;;;;;;4998479;28;20420;-91
2021/03/21 06:39:26;;;;;;;39.05;22.08;;;;;;;;;;4997680;28;20022;-90
2021/03/21 06:42:15;;;;;;;41.35;23.08;;;;;;;;;;4997665;28;20030;-90
2021/03/21 06:44:56;;;;;;;43.58;25.50;;;;;;;;;;4997619;28;20034;-89
2021/03/21 06:47:55;;;;;;;46.75;25.90;;;;;;;;;;4997963;28;20026;-90
2021/03/21 06:50:40;;;;;;;41.28;22.95;;;;;;;;;;4957813;28;20098;-89
2021/03/21 06:53:16;;;;;;;42.22;23.13;;;;;;;;;;4958042;29;20067;-90
2021/03/21 06:55:45;;;;;;;36.25;21.33;;;;;;;;;;4957986;29;20031;-90
2021/03/21 06:58:11;;;;;;;39.67;24.25;;;;;;;;;;4942108;29;20047;-90
2021/03/21 07:00:53;;;;;;;38.08;22.65;;;;;;;;;;4957897;29;20036;-88
2021/03/21 07:03:37;;;;;;;36.78;21.60;;;;;;;;;;4958181;29;20031;-89
2021/03/21 07:06:22;;;;;;;37.80;22.50;;;;;;;;;;4957959;28;20055;-90
2021/03/21 07:09:07;;;;;;;43.85;24.05;;;;;;;;;;4958059;29;20023;-90
2021/03/21 07:11:56;;;;;;;38.58;23.90;;;;;;;;;;4957815;29;20106;-89
2021/03/21 07:14:41;;;;;;;44.40;24.80;;;;;;;;;;4900902;29;20093;-90
2021/03/21 07:17:11;;;;;;;37.45;22.23;;;;;;;;;;4900699;29;20373;-91
2021/03/21 07:19:56;;;;;;;43.03;24.15;;;;;;;;;;4900881;29;20028;-92
2021/03/21 07:22:33;;;;;;;43.15;24.65;;;;;;;;;;4900486;29;20048;-87
2021/03/21 07:25:24;;;;;;;38.80;22.65;;;;;;;;;;4905335;29;20522;-88
2021/03/21 07:27:55;;;;;;;33.78;21.08;;;;;;;;;;4922719;29;20450;-88
2021/03/21 07:30:22;;;;;;;36.03;20.88;;;;;;;;;;4922224;29;20103;-89
2021/03/21 07:32:50;;;;;;;36.67;21.98;;;;;;;;;;4938683;29;20036;-90
2021/03/21 07:35:28;;;;;;;29.60;19.83;;;;;;;;;;4938551;29;20055;-90
2021/03/21 07:38:21;;;;;;;29.50;19.10;;;;;;;;;;4938711;29;20131;-89
2021/03/21 07:40:55;;;;;;;31.17;18.92;;;;;;;;;;4936251;29;20039;-88
2021/03/21 07:43:34;;;;;;;36.03;20.10;;;;;;;;;;4922278;29;20399;-89
2021/03/21 07:46:07;;;;;;;31.80;19.83;;;;;;;;;;4922311;29;20031;-89
2021/03/21 07:48:36;;;;;;;31.35;18.92;;;;;;;;;;4938368;29;20039;-89
2021/03/21 07:51:08;;;;;;;34.35;19.77;;;;;;;;;;4960632;28;20406;-88
2021/03/21 07:53:36;;;;;;;34.72;21.05;;;;;;;;;;4997891;28;20041;-88
2021/03/21 07:56:02;;;;;;;33.92;20.92;;;;;;;;;;4996758;28;20057;-89
2021/03/21 07:58:33;;;;;;;34.75;21.58;;;;;;;;;;4998156;28;20023;-88
2021/03/21 08:01:00;;;;;;;35.53;20.42;;;;;;;;;;5002005;28;20069;-89
2021/03/21 08:03:30;;;;;;;32.10;20.30;;;;;;;;;;5000466;28;20022;-89
2021/03/21 08:05:57;;;;;;;33.40;20.42;;;;;;;;;;5001484;28;20294;-89
2021/03/21 08:08:28;;;;;;;35.95;21.85;;;;;;;;;;5001409;28;20054;-92
2021/03/21 08:10:56;;;;;;;35.42;19.98;;;;;;;;;;5001567;28;20078;-88
2021/03/21 08:13:26;;;;;;;35.47;20.77;;;;;;;;;;5000442;28;20022;-90
2021/03/21 08:15:52;;;;;;;34.20;20.10;;;;;;;;;;5000313;28;20027;-91
2021/03/21 08:18:19;;;;;;;41.10;24.55;;;;;;;;;;5000279;28;20023;-91
2021/03/21 08:20:56;;;;;;;37.60;22.17;;;;;;;;;;5001296;28;20423;-89
2021/03/21 08:23:30;;;;;;;35.05;21.42;;;;;;;;;;5000095;28;20051;-90
2021/03/21 08:25:58;;;;;;;35.78;20.70;;;;;;;;;;5001116;28;20023;-90
2021/03/21 08:28:35;;;;;;;35.15;21.88;;;;;;;;;;5000742;28;20026;-90
2021/03/21 08:31:01;;;;;;;35.33;21.98;;;;;;;;;;5001134;28;20022;-91
2021/03/21 08:33:29;;;;;;;40.08;24.15;;;;;;;;;;5000061;28;20030;-91
2021/03/21 08:36:08;;;;;;;40.95;24.25;;;;;;;;;;4983410;28;20039;-88
2021/03/21 08:38:34;;;;;;;36.00;22.35;;;;;;;;;;4999269;28;20030;-90
2021/03/21 08:41:01;;;;;;;38.15;23.83;;;;;;;;;;5001160;28;20042;-89
2021/03/21 08:43:33;;;;;;;47.80;27.52;;;;;;;;;;5000631;28;20313;-91
2021/03/21 08:46:10;;;;;;;58.53;30.92;;;;;;;;;;5000284;28;20026;-91
2021/03/21 08:48:37;;;;;;;45.95;26.65;;;;;;;;;;5000859;28;20038;-90
2021/03/21 08:51:12;;;;;;;48.15;25.30;;;;;;;;;;4999298;28;20034;-90
2021/03/21 08:53:42;;;;;;;39.28;23.45;;;;;;;;;;5000056;28;20081;-87
2021/03/21 08:56:17;;;;;;;49.33;26.38;;;;;;;;;;4999633;28;20368;-89
2021/03/21 08:58:44;;;;;;;57.33;29.73;;;;;;;;;;5000814;28;20022;-91
2021/03/21 09:01:15;;;;;;;54.22;29.55;;;;;;;;;;5000388;28;20114;-89
2021/03/21 09:03:41;;;;;;;37.67;23.60;;;;;;;;;;5000404;28;20030;-89
2021/03/21 09:06:07;;;;;;;38.42;23.48;;;;;;;;;;5000380;28;20034;-89
2021/03/21 09:08:35;;;;;;;50.63;30.63;;;;;;;;;;5000220;28;20413;-90
2021/03/21 09:11:05;;;;;;;44.90;27.35;;;;;;;;;;4998576;28;20030;-90
2021/03/21 09:13:32;;;;;;;39.67;22.90;;;;;;;;;;5000216;28;20105;-91
2021/03/21 09:15:58;;;;;;;52.58;26.48;;;;;;;;;;5000156;28;20031;-91
2021/03/21 09:18:33;;;;;;;50.53;26.50;;;;;;;;;;5000362;28;20041;-92
2021/03/21 09:24:06;;;;;;;36.92;23.38;;;;;;;;;;5010641;28;20053;-91
2021/03/21 09:26:33;;;;;;;39.67;24.02;;;;;;;;;;5019216;28;20121;-91
2021/03/21 09:29:01;;;;;;;37.80;22.70;;;;;;;;;;5019714;28;20320;-93
2021/03/21 09:31:28;;;;;;;28.55;18.52;;;;;;;;;;5019833;28;20030;-90
2021/03/21 09:33:58;;;;;;;30.75;20.92;;;;;;;;;;5001960;28;20087;-89
2021/03/21 09:37:02;;;;;;;58.22;31.98;;;;;;;;;;5001719;28;20076;-91
2021/03/21 09:39:30;;;;;;;31.02;19.90;;;;;;;;;;5018877;28;20049;-87
2021/03/21 09:41:57;;;;;;;33.35;21.50;;;;;;;;;;5001457;28;20367;-91
2021/03/21 09:44:36;;;;;;;33.80;21.65;;;;;;;;;;5001340;28;20021;-85
2021/03/21 09:47:21;;;;;;;48.30;26.48;;;;;;;;;;5002300;28;20034;-93
2021/03/21 09:49:50;;;;;;;32.53;18.90;;;;;;;;;;5001309;28;20022;-86
2021/03/21 09:52:25;;;;;;;37.45;20.17;;;;;;;;;;5018410;28;20290;-86
2021/03/21 09:54:51;;;;;;;37.08;21.65;;;;;;;;;;5018690;28;20068;-85
2021/03/21 09:57:36;;;;;;;36.83;23.25;;;;;;;;;;5018024;28;20032;-86
2021/03/21 10:00:09;;;;;;;39.20;26.30;;;;;;;;;;5017784;28;20032;-86
2021/03/21 10:02:41;;;;;;;30.02;20.55;;;;;;;;;;5001357;28;20432;-85
2021/03/21 10:05:07;;;;;;;34.67;23.10;;;;;;;;;;5000996;28;20034;-86
2021/03/21 10:07:36;;;;;;;26.17;18.00;;;;;;;;;;5001351;28;20055;-86
2021/03/21 10:10:07;;;;;;;37.03;21.35;;;;;;;;;;5001257;28;20083;-86
2021/03/21 10:12:38;;;;;;;29.38;17.98;;;;;;;;;;5000611;28;20037;-82
2021/03/21 10:15:09;;;;;;;29.02;17.42;;;;;;;;;;5018078;28;20111;-83
2021/03/21 10:17:35;;;;;;;33.50;19.80;;;;;;;;;;5018238;28;20501;-84
2021/03/21 10:20:01;;;;;;;33.35;20.05;;;;;;;;;;5000782;28;20084;-86
2021/03/21 10:22:27;;;;;;;24.48;16.48;;;;;;;;;;5003706;28;20027;-86
2021/03/21 10:24:58;;;;;;;34.40;21.42;;;;;;;;;;5018186;28;20117;-85
2021/03/21 10:27:30;;;;;;;44.50;27.33;;;;;;;;;;4991699;28;20048;-85
2021/03/21 10:30:05;;;;;;;36.80;21.13;;;;;;;;;;4998867;28;20154;-85
2021/03/21 10:32:32;;;;;;;34.83;20.35;;;;;;;;;;5002878;28;20426;-86
2021/03/21 10:34:59;;;;;;;34.38;18.63;;;;;;;;;;4999686;28;20168;-86
2021/03/21 10:37:51;;;;;;;34.67;19.23;;;;;;;;;;5017688;28;20042;-86
2021/03/21 10:40:23;;;;;;;24.33;15.48;;;;;;;;;;4922994;29;20028;-86
2021/03/21 10:42:52;;;;;;;25.75;15.85;;;;;;;;;;4939050;29;20032;-84
2021/03/21 10:45:38;;;;;;;21.77;14.95;;;;;;;;;;4939008;29;20102;-86
2021/03/21 10:48:08;;;;;;;32.80;18.55;;;;;;;;;;4922828;29;20072;-86
2021/03/21 10:50:34;;;;;;;29.75;18.45;;;;;;;;;;4938857;29;20035;-87
2021/03/21 10:53:16;;;;;;;33.10;18.65;;;;;;;;;;4923046;29;20031;-87
2021/03/21 10:55:42;;;;;;;28.77;18.17;;;;;;;;;;4938787;29;20038;-87
2021/03/21 10:58:22;;;;;;;24.77;16.05;;;;;;;;;;4938452;29;20152;-87
2021/03/21 11:01:07;;;;;;;27.60;16.00;;;;;;;;;;4938719;29;20030;-87
2021/03/21 11:03:33;;;;;;;24.30;15.52;;;;;;;;;;4921889;29;20032;-87
2021/03/21 11:06:19;;;;;;;32.10;17.63;;;;;;;;;;4938719;29;20023;-86
2021/03/21 11:08:45;;;;;;;29.65;17.60;;;;;;;;;;4938634;29;20043;-87
2021/03/21 11:11:16;;;;;;;33.75;18.50;;;;;;;;;;4938422;29;20418;-88
2021/03/21 11:13:42;;;;;;;29.45;16.27;;;;;;;;;;4922608;29;20046;-86
2021/03/21 11:16:09;;;;;;;24.75;15.13;;;;;;;;;;4929937;28;20028;-86
2021/03/21 11:18:36;;;;;;;30.00;16.58;;;;;;;;;;5016263;28;20045;-87
2021/03/21 11:21:05;;;;;;;24.13;14.95;;;;;;;;;;5017321;28;20109;-87
2021/03/21 11:23:34;;;;;;;22.15;13.88;;;;;;;;;;5000101;28;20108;-87
2021/03/21 11:26:00;;;;;;;21.15;14.82;;;;;;;;;;5000022;28;20084;-87
2021/03/21 11:28:36;;;;;;;20.15;13.85;;;;;;;;;;5000020;28;20057;-87
2021/03/21 11:31:03;;;;;;;21.40;14.55;;;;;;;;;;5017366;28;20029;-87
2021/03/21 11:33:45;;;;;;;19.33;13.57;;;;;;;;;;5017820;28;20026;-87
2021/03/21 11:36:14;;;;;;;27.77;16.35;;;;;;;;;;5004110;28;20478;-87
2021/03/21 11:38:41;;;;;;;28.65;16.75;;;;;;;;;;5004246;28;20021;-87
2021/03/21 11:41:24;;;;;;;49.22;21.85;;;;;;;;;;5021341;28;20037;-86
2021/03/21 11:43:50;;;;;;;;;;;;;;;;;;5021869;28;20029;-86
2021/03/21 11:46:27;;;;;;;36.75;20.27;;;;;;;;;;5004477;28;19909;-86
2021/03/21 11:48:55;;;;;;;24.38;16.48;;;;;;;;;;5021576;28;20030;-86
2021/03/21 11:51:21;;;;;;;32.25;18.75;;;;;;;;;;5021416;28;20040;-88
2021/03/21 11:53:48;;;;;;;37.05;20.08;;;;;;;;;;5021239;28;20105;-88
2021/03/21 11:56:19;;;;;;;30.83;18.88;;;;;;;;;;5020893;28;20319;-86
2021/03/21 11:58:45;;;;;;;28.27;17.38;;;;;;;;;;5003827;28;20026;-87
2021/03/21 12:01:17;;;;;;;28.50;17.83;;;;;;;;;;5020739;28;20137;-87
2021/03/21 12:03:45;;;;;;;28.63;18.77;;;;;;;;;;5021044;28;20026;-87
2021/03/21 12:06:21;;;;;;;25.67;15.05;;;;;;;;;;5020734;28;20343;-85
2021/03/21 12:08:47;;;;;;;33.95;18.77;;;;;;;;;;5003490;28;20030;-87
2021/03/21 12:11:16;;;;;;;41.88;22.63;;;;;;;;;;5003758;28;20041;-87
2021/03/21 12:13:42;;;;;;;34.88;18.92;;;;;;;;;;5003395;28;20026;-87
2021/03/21 12:16:27;;;;;;;35.00;18.02;;;;;;;;;;5020477;28;20381;-88
2021/03/21 12:18:54;;;;;;;35.97;20.92;;;;;;;;;;5020568;28;20032;-87
2021/03/21 12:24:25;;;;;;;38.63;21.38;;;;;;;;;;5012088;28;20061;-87
2021/03/21 12:26:51;;;;;;;32.30;18.45;;;;;;;;;;4999554;28;20159;-88
2021/03/21 12:29:32;;;;;;;31.95;18.85;;;;;;;;;;5020887;28;20105;-88
2021/03/21 12:32:37;;;;;;;32.35;18.27;;;;;;;;;;5020890;28;20132;-87
2021/03/21 12:35:05;;;;;;;32.53;17.95;;;;;;;;;;4941021;29;20035;-88
2021/03/21 12:40:34;;;;;;;;;;;;;;;;;;4932570;29;20111;-86
2021/03/21 12:43:19;;;;;;;38.92;20.95;;;;;;;;;;4941307;29;19946;-93
2021/03/21 12:46:03;;;;;;;33.22;16.30;;;;;;;;;;4933585;29;20038;-88
2021/03/21 12:48:29;;;;;;;32.25;16.55;;;;;;;;;;4940909;29;20035;-87
2021/03/21 12:50:56;;;;;;;28.50;16.50;;;;;;;;;;4924163;29;20142;-89
2021/03/21 12:53:23;;;;;;;30.13;16.35;;;;;;;;;;4940940;29;20051;-88
2021/03/21 12:55:49;;;;;;;23.70;15.30;;;;;;;;;;4924507;29;20039;-89
2021/03/21 12:58:16;;;;;;;32.30;16.90;;;;;;;;;;4940736;29;20099;-89
2021/03/21 13:00:42;;;;;;;53.25;24.25;;;;;;;;;;4924213;29;20135;-90
2021/03/21 13:03:10;;;;;;;41.25;22.48;;;;;;;;;;4924504;29;20092;-88
2021/03/21 13:12:01;;;;;;;30.50;18.05;;;;;;;;;;5019796;28;19996;-90
2021/03/21 13:14:30;;;;;;;37.35;19.00;;;;;;;;;;5002329;28;20117;-91
2021/03/21 13:16:56;;;;;;;35.30;20.13;;;;;;;;;;5019893;28;20033;-92
2021/03/21 13:19:22;;;;;;;37.78;20.73;;;;;;;;;;5002221;28;20026;-90
2021/03/21 13:21:48;;;;;;;36.25;19.38;;;;;;;;;;5001956;28;20026;-89
2021/03/21 13:24:15;;;;;;;30.83;18.98;;;;;;;;;;5018805;28;20368;-90
2021/03/21 13:26:41;;;;;;;23.23;15.48;;;;;;;;;;5002206;28;20068;-89
2021/03/21 13:29:07;;;;;;;26.88;17.05;;;;;;;;;;5019464;28;20030;-90
2021/03/21 13:31:33;;;;;;;29.13;17.73;;;;;;;;;;5002014;28;20037;-88
2021/03/21 13:33:59;;;;;;;25.02;14.90;;;;;;;;;;5019143;28;20037;-88
2021/03/21 13:36:25;;;;;;;26.85;14.00;;;;;;;;;;5019066;28;20479;-89
2021/03/21 13:38:52;;;;;;;27.25;15.38;;;;;;;;;;4997954;28;20344;-89
2021/03/21 13:41:18;;;;;;;26.08;14.65;;;;;;;;;;5018915;28;20021;-89
2021/03/21 13:43:44;;;;;;;33.08;17.75;;;;;;;;;;5017153;28;20050;-90
2021/03/21 13:46:10;;;;;;;29.27;17.02;;;;;;;;;;4999760;28;20021;-88
2021/03/21 13:48:38;;;;;;;24.50;14.77;;;;;;;;;;5014012;28;20059;-88
2021/03/21 13:54:08;;;;;;;25.67;15.23;;;;;;;;;;4999694;28;20061;-86
2021/03/21 13:56:35;;;;;;;28.00;14.82;;;;;;;;;;4989392;28;20132;-87
2021/03/21 13:59:01;;;;;;;20.92;13.73;;;;;;;;;;5019130;28;20096;-88
2021/03/21 14:01:27;;;;;;;18.45;11.93;;;;;;;;;;5000885;28;20018;-90
2021/03/21 14:03:56;;;;;;;17.70;11.55;;;;;;;;;;4999298;28;20023;-89
2021/03/21 14:06:22;;;;;;;21.05;12.57;;;;;;;;;;5000209;28;20041;-90
2021/03/21 14:08:49;;;;;;;18.83;13.05;;;;;;;;;;5000891;28;20064;-89
2021/03/21 14:11:15;;;;;;;17.00;10.68;;;;;;;;;;5001421;28;20025;-90
2021/03/21 14:13:41;;;;;;;15.25;11.20;;;;;;;;;;5010389;28;20352;-90
2021/03/21 14:16:07;;;;;;;18.35;12.10;;;;;;;;;;5017712;28;20025;-91
2021/03/21 14:18:34;;;;;;;20.67;14.25;;;;;;;;;;5011287;28;20042;-89
2021/03/21 14:21:00;;;;;;;24.80;15.57;;;;;;;;;;5012844;28;20036;-88
2021/03/21 14:23:28;;;;;;;24.35;15.32;;;;;;;;;;5017698;28;20022;-88
2021/03/21 14:25:55;;;;;;;22.92;13.55;;;;;;;;;;4998735;28;20118;-89
2021/03/21 14:28:21;;;;;;;24.13;15.25;;;;;;;;;;4987435;28;20023;-89
2021/03/21 14:30:48;;;;;;;27.05;16.02;;;;;;;;;;4988000;28;20031;-89
2021/03/21 14:33:15;;;;;;;43.70;22.90;;;;;;;;;;4992174;28;20038;-87
2021/03/21 14:35:42;;;;;;;35.55;19.48;;;;;;;;;;4997501;28;20038;-88
2021/03/21 14:41:12;;;;;;;39.80;20.63;;;;;;;;;;4998164;28;20447;-89
2021/03/21 14:43:38;;;;;;;31.73;17.95;;;;;;;;;;4978081;28;20022;-90
2021/03/21 14:46:05;;;;;;;30.30;17.50;;;;;;;;;;4980597;28;20290;-90
2021/03/21 14:48:31;;;;;;;30.48;18.30;;;;;;;;;;4988535;28;20061;-90
2021/03/21 14:50:57;;;;;;;28.55;16.63;;;;;;;;;;4997212;28;20030;-89
2021/03/21 14:53:25;;;;;;;30.92;17.27;;;;;;;;;;4996926;28;20040;-89
2021/03/21 14:55:52;;;;;;;28.77;16.42;;;;;;;;;;4996190;28;20037;-91
2021/03/21 14:58:22;;;;;;;45.47;24.65;;;;;;;;;;4994544;28;20030;-89
2021/03/21 15:00:48;;;;;;;44.22;24.65;;;;;;;;;;4995452;28;20117;-89
2021/03/21 15:03:14;;;;;;;32.83;19.52;;;;;;;;;;4997165;28;20038;-89
2021/03/21 15:05:40;;;;;;;33.05;20.65;;;;;;;;;;4998030;28;20069;-89
2021/03/21 15:08:44;;;;;;;24.58;17.10;;;;;;;;;;4995079;28;20034;-89
2021/03/21 15:11:11;;;;;;;24.63;15.68;;;;;;;;;;4981642;28;20058;-91
2021/03/21 15:13:38;;;;;;;26.25;17.35;;;;;;;;;;4994798;28;20037;-91
2021/03/21 15:16:04;;;;;;;20.65;13.75;;;;;;;;;;4996864;28;20097;-88